createdAt,value
2023-05-06T00:01:16.231Z,88.48
2023-05-06T00:03:42.975Z,86.79
2023-05-06T00:06:10.012Z,85.69
2023-05-06T00:08:36.685Z,89.43
2023-05-06T00:11:04.696Z,94.93
2023-05-06T00:13:31.397Z,94.88
2023-05-06T00:15:58.057Z,96.26
2023-05-06T00:18:24.763Z,97.10
2023-05-06T00:20:51.379Z,95.30
2023-05-06T00:23:17.948Z,92.74
2023-05-06T00:25:44.548Z,90.65
2023-05-06T00:28:12.553Z,89.36
2023-05-06T00:30:39.332Z,88.00
2023-05-06T00:33:05.985Z,89.81
2023-05-06T00:35:33.272Z,92.08
2023-05-06T00:38:06.882Z,93.49
2023-05-06T00:40:33.466Z,94.24
2023-05-06T00:43:00.147Z,92.06
2023-05-06T00:45:28.230Z,89.91
2023-05-06T00:47:54.882Z,88.70
2023-05-06T00:50:21.586Z,88.59
2023-05-06T00:52:48.627Z,88.18
2023-05-06T00:55:15.471Z,89.66
2023-05-06T00:57:42.101Z,89.74
2023-05-06T01:00:09.168Z,89.31
2023-05-06T01:02:46.594Z,88.44
2023-05-06T01:05:14.195Z,87.90
2023-05-06T01:07:42.618Z,88.49
2023-05-06T01:10:13.668Z,90.09
2023-05-06T01:12:42.911Z,91.75
2023-05-06T01:15:11.935Z,90.75
2023-05-06T01:17:42.471Z,88.81
2023-05-06T01:20:11.946Z,87.72
2023-05-06T01:22:39.078Z,87.20
2023-05-06T01:25:07.830Z,87.19
2023-05-06T01:27:34.802Z,87.03
2023-05-06T01:30:04.710Z,86.51
2023-05-06T01:32:40.848Z,86.48
2023-05-06T01:35:12.172Z,85.78
2023-05-06T01:37:42.162Z,86.07
2023-05-06T01:40:10.901Z,86.37
2023-05-06T01:42:39.187Z,86.96
2023-05-06T01:45:07.244Z,88.02
2023-05-06T01:47:35.413Z,87.28
2023-05-06T01:50:02.260Z,86.79
2023-05-06T01:52:28.896Z,86.22
2023-05-06T01:54:55.550Z,85.91
2023-05-06T01:57:23.604Z,86.08
2023-05-06T01:59:50.800Z,85.56
2023-05-06T02:02:17.398Z,85.53
2023-05-06T02:04:44.071Z,85.71
2023-05-06T02:07:10.899Z,85.70
2023-05-06T02:09:37.630Z,85.43
2023-05-06T02:12:05.082Z,85.88
2023-05-06T02:14:33.109Z,86.92
2023-05-06T02:17:03.612Z,87.97
2023-05-06T02:19:30.634Z,88.89
2023-05-06T02:21:57.648Z,89.52
2023-05-06T02:24:25.074Z,89.55
2023-05-06T02:26:51.732Z,90.11
2023-05-06T02:29:18.394Z,90.67
2023-05-06T02:31:46.405Z,91.40
2023-05-06T02:34:16.360Z,91.08
2023-05-06T02:36:43.235Z,91.04
2023-05-06T02:39:09.891Z,91.06
2023-05-06T02:41:36.554Z,91.01
2023-05-06T02:44:03.255Z,90.91
2023-05-06T02:46:31.058Z,90.50
2023-05-06T02:48:58.979Z,90.04
2023-05-06T02:51:25.705Z,88.63
2023-05-06T02:53:52.312Z,87.14
2023-05-06T02:56:18.939Z,86.09
2023-05-06T02:58:45.548Z,85.80
2023-05-06T03:01:12.260Z,90.25
2023-05-06T03:03:38.970Z,93.72
2023-05-06T03:06:07.179Z,92.56
2023-05-06T03:08:33.790Z,90.56
2023-05-06T03:11:01.516Z,89.68
2023-05-06T03:13:28.756Z,89.82
2023-05-06T03:15:56.793Z,89.93
2023-05-06T03:18:23.642Z,89.35
2023-05-06T03:20:50.976Z,89.22
2023-05-06T03:23:20.052Z,89.14
2023-05-06T03:25:47.180Z,88.30
2023-05-06T03:28:14.537Z,93.68
2023-05-06T03:30:43.775Z,92.58
2023-05-06T03:33:10.844Z,91.33
2023-05-06T03:35:37.565Z,89.83
2023-05-06T03:38:04.227Z,89.24
2023-05-06T03:40:45.317Z,88.38
2023-05-06T03:43:14.455Z,88.12
2023-05-06T03:45:42.928Z,88.05
2023-05-06T03:48:09.843Z,88.29
2023-05-06T03:50:40.696Z,88.57
2023-05-06T03:53:07.308Z,90.07
2023-05-06T03:55:35.653Z,89.71
2023-05-06T03:58:04.077Z,88.73
2023-05-06T04:00:30.897Z,88.17
2023-05-06T04:02:57.640Z,87.60
2023-05-06T04:05:31.588Z,86.77
2023-05-06T04:07:58.368Z,86.75
2023-05-06T04:10:25.038Z,86.76
2023-05-06T04:12:54.506Z,86.93
2023-05-06T04:15:31.989Z,87.23
2023-05-06T04:17:59.977Z,87.18
2023-05-06T04:20:27.499Z,87.33
2023-05-06T04:22:54.401Z,88.09
2023-05-06T04:25:21.376Z,87.76
2023-05-06T04:27:48.576Z,87.04
2023-05-06T04:30:15.455Z,87.83
2023-05-06T04:32:44.140Z,87.52
2023-05-06T04:35:11.194Z,86.93
2023-05-06T04:37:39.487Z,87.12
2023-05-06T04:40:11.784Z,86.74
2023-05-06T04:42:39.932Z,86.64
2023-05-06T04:45:12.771Z,86.31
2023-05-06T04:47:44.321Z,85.73
2023-05-06T04:50:11.554Z,85.09
2023-05-06T04:52:38.578Z,84.93
2023-05-06T04:55:06.274Z,84.72
2023-05-06T04:57:35.163Z,84.45
2023-05-06T05:00:02.726Z,83.05
2023-05-06T05:02:29.753Z,84.37
2023-05-06T05:04:57.798Z,83.43
2023-05-06T05:07:24.953Z,83.37
2023-05-06T05:09:51.734Z,83.93
2023-05-06T05:12:18.354Z,82.62
2023-05-06T05:14:48.008Z,81.11
2023-05-06T05:17:15.238Z,80.91
2023-05-06T05:19:42.202Z,80.71
2023-05-06T05:22:11.200Z,81.59
2023-05-06T05:24:39.185Z,84.57
2023-05-06T05:27:05.826Z,79.97
2023-05-06T05:29:32.513Z,79.07
2023-05-06T05:32:00.694Z,76.78
2023-05-06T05:34:27.511Z,77.39
2023-05-06T05:36:55.174Z,76.89
2023-05-06T05:39:23.497Z,77.10
2023-05-06T05:41:50.185Z,76.25
2023-05-06T05:44:17.088Z,77.18
2023-05-06T05:46:44.671Z,74.24
2023-05-06T05:49:14.652Z,75.84
2023-05-06T05:51:41.678Z,77.80
2023-05-06T05:54:10.630Z,74.67
2023-05-06T05:56:39.258Z,75.91
2023-05-06T05:59:06.118Z,76.09
2023-05-06T06:01:32.920Z,78.09
2023-05-06T06:03:59.957Z,79.04
2023-05-06T06:06:26.831Z,78.09
2023-05-06T06:08:55.205Z,75.77
2023-05-06T06:11:22.675Z,76.65
2023-05-06T06:13:50.840Z,76.82
2023-05-06T06:16:17.589Z,77.49
2023-05-06T06:18:44.335Z,77.13
2023-05-06T06:21:10.968Z,78.72
2023-05-06T06:23:38.862Z,78.40
2023-05-06T06:26:06.483Z,78.33
2023-05-06T06:28:33.584Z,77.42
2023-05-06T06:31:02.078Z,79.23
2023-05-06T06:33:28.817Z,79.01
2023-05-06T06:35:55.529Z,77.03
2023-05-06T06:38:22.428Z,76.75
2023-05-06T06:40:49.016Z,76.63
2023-05-06T06:43:15.826Z,77.48
2023-05-06T06:45:58.871Z,75.18
2023-05-06T06:48:27.025Z,75.78
2023-05-06T06:50:53.719Z,75.29
2023-05-06T06:53:20.554Z,76.60
2023-05-06T06:55:47.149Z,75.62
2023-05-06T06:58:13.964Z,76.57
2023-05-06T07:00:40.550Z,75.57
2023-05-06T07:03:07.279Z,74.63
2023-05-06T07:05:35.277Z,73.87
2023-05-06T07:08:02.009Z,75.12
2023-05-06T07:10:28.753Z,72.97
2023-05-06T07:12:55.696Z,74.17
2023-05-06T07:15:22.514Z,72.80
2023-05-06T07:17:49.268Z,71.97
2023-05-06T07:20:16.292Z,72.16
2023-05-06T07:22:45.735Z,72.10
2023-05-06T07:25:12.805Z,70.92
2023-05-06T07:27:39.604Z,72.32
2023-05-06T07:30:07.001Z,68.07
2023-05-06T07:32:33.679Z,69.90
2023-05-06T07:35:00.397Z,67.77
2023-05-06T07:37:27.099Z,67.37
2023-05-06T07:39:56.460Z,66.72
2023-05-06T07:42:23.072Z,67.48
2023-05-06T07:44:49.714Z,66.78
2023-05-06T07:47:25.466Z,65.68
2023-05-06T07:49:52.260Z,64.78
2023-05-06T07:52:18.847Z,65.15
2023-05-06T07:54:45.708Z,68.46
2023-05-06T07:57:13.806Z,64.96
2023-05-06T07:59:40.459Z,65.05
2023-05-06T08:02:07.061Z,65.86
2023-05-06T08:04:33.841Z,65.36
2023-05-06T08:07:00.550Z,65.82
2023-05-06T08:09:27.210Z,63.64
2023-05-06T08:11:54.189Z,63.90
2023-05-06T08:14:22.362Z,64.74
2023-05-06T08:16:49.353Z,61.73
2023-05-06T08:19:16.100Z,59.17
2023-05-06T08:21:42.692Z,60.14
2023-05-06T08:24:10.960Z,60.98
2023-05-06T08:26:37.601Z,59.97
2023-05-06T08:29:04.667Z,62.12
2023-05-06T08:31:32.688Z,61.88
2023-05-06T08:33:59.413Z,58.94
2023-05-06T08:36:26.355Z,59.41
2023-05-06T08:38:53.153Z,56.13
2023-05-06T08:41:21.365Z,56.10
2023-05-06T08:43:49.090Z,57.92
2023-05-06T08:46:16.059Z,57.00
2023-05-06T08:48:44.154Z,58.38
2023-05-06T08:51:13.644Z,57.35
2023-05-06T08:53:42.094Z,57.80
2023-05-06T08:56:10.552Z,59.73
2023-05-06T08:58:38.694Z,58.18
2023-05-06T09:01:05.638Z,56.11
2023-05-06T09:03:32.484Z,55.49
2023-05-06T09:06:00.626Z,55.63
2023-05-06T09:08:27.313Z,57.86
2023-05-06T09:10:53.961Z,56.62
2023-05-06T09:13:20.840Z,51.18
2023-05-06T09:15:48.066Z,56.74
2023-05-06T09:18:15.191Z,49.67
2023-05-06T09:20:42.495Z,50.78
2023-05-06T09:23:11.094Z,51.23
2023-05-06T09:25:37.948Z,50.31
2023-05-06T09:28:05.111Z,52.23
2023-05-06T09:30:31.804Z,49.69
2023-05-06T09:32:58.906Z,46.82
2023-05-06T09:35:27.355Z,47.75
2023-05-06T09:37:53.955Z,48.12
2023-05-06T09:40:23.419Z,49.24
2023-05-06T09:42:51.656Z,46.12
2023-05-06T09:45:18.310Z,48.55
2023-05-06T09:47:45.966Z,47.83
2023-05-06T09:50:13.979Z,45.18
2023-05-06T09:52:44.372Z,44.05
2023-05-06T09:55:11.951Z,49.49
2023-05-06T09:57:40.961Z,47.18
2023-05-06T10:00:08.822Z,47.42
2023-05-06T10:02:45.215Z,50.52
2023-05-06T10:05:13.139Z,47.76
2023-05-06T10:07:42.487Z,44.19
2023-05-06T10:10:11.140Z,43.75
2023-05-06T10:12:37.907Z,45.14
2023-05-06T10:15:07.120Z,46.41
2023-05-06T10:17:34.630Z,47.15
2023-05-06T10:20:01.989Z,42.50
2023-05-06T10:22:34.136Z,42.66
2023-05-06T10:25:04.256Z,43.61
2023-05-06T10:27:32.926Z,44.42
2023-05-06T10:30:00.384Z,44.22
2023-05-06T10:32:31.496Z,43.38
2023-05-06T10:35:03.223Z,45.59
2023-05-06T10:37:31.048Z,43.34
2023-05-06T10:39:58.257Z,43.29
2023-05-06T10:42:27.118Z,43.49
2023-05-06T10:44:57.330Z,47.85
2023-05-06T10:47:23.983Z,44.22
2023-05-06T10:50:05.973Z,41.08
2023-05-06T10:52:45.397Z,40.92
2023-05-06T10:55:24.803Z,39.48
2023-05-06T10:57:54.825Z,45.76
2023-05-06T11:00:21.805Z,44.63
2023-05-06T11:02:51.387Z,44.37
2023-05-06T11:05:18.307Z,42.93
2023-05-06T11:07:49.466Z,42.10
2023-05-06T11:10:16.204Z,42.13
2023-05-06T11:12:46.938Z,41.58
2023-05-06T11:15:28.609Z,41.81
2023-05-06T11:17:56.315Z,41.09
2023-05-06T11:20:23.451Z,40.87
2023-05-06T11:22:51.954Z,43.29
2023-05-06T11:25:38.979Z,44.80
2023-05-06T11:28:07.115Z,40.55
2023-05-06T11:30:33.801Z,44.60
2023-05-06T11:33:05.376Z,43.41
2023-05-06T11:35:35.851Z,42.60
2023-05-06T11:38:04.680Z,38.10
2023-05-06T11:40:31.586Z,40.79
2023-05-06T11:43:09.649Z,39.22
2023-05-06T11:45:43.634Z,42.25
2023-05-06T11:48:11.572Z,40.80
2023-05-06T11:50:38.186Z,37.62
2023-05-06T11:53:06.198Z,39.52
2023-05-06T11:55:32.834Z,41.90
2023-05-06T11:57:59.476Z,41.99
2023-05-06T12:00:26.813Z,41.86
2023-05-06T12:02:55.165Z,38.84
2023-05-06T12:05:22.628Z,38.95
2023-05-06T12:07:49.645Z,37.05
2023-05-06T12:10:18.352Z,36.73
2023-05-06T12:12:45.131Z,36.71
2023-05-06T12:15:12.115Z,36.98
2023-05-06T12:17:38.983Z,37.85
2023-05-06T12:20:06.456Z,39.08
2023-05-06T12:22:33.327Z,38.04
2023-05-06T12:25:12.437Z,41.46
2023-05-06T12:27:40.627Z,37.98
2023-05-06T12:30:09.435Z,37.19
2023-05-06T12:32:37.027Z,38.60
2023-05-06T12:35:07.455Z,39.67
2023-05-06T12:37:34.416Z,40.44
2023-05-06T12:40:01.350Z,37.80
2023-05-06T12:42:28.297Z,38.01
2023-05-06T12:44:56.396Z,37.21
2023-05-06T12:47:24.160Z,38.29
2023-05-06T12:49:51.323Z,36.48
2023-05-06T12:52:18.674Z,37.38
2023-05-06T12:54:45.980Z,37.10
2023-05-06T12:57:12.855Z,40.39
2023-05-06T12:59:39.764Z,39.44
2023-05-06T13:02:07.816Z,37.55
2023-05-06T13:04:34.448Z,36.62
2023-05-06T13:07:01.411Z,37.03
2023-05-06T13:09:28.071Z,37.59
2023-05-06T13:11:55.219Z,36.55
2023-05-06T13:14:21.940Z,39.25
2023-05-06T13:16:48.819Z,40.32
2023-05-06T13:21:46.494Z,36.21
2023-05-06T13:24:13.208Z,37.54
2023-05-06T13:26:39.883Z,39.87
2023-05-06T13:29:06.582Z,39.16
2023-05-06T13:31:34.722Z,37.79
2023-05-06T13:34:01.437Z,41.45
2023-05-06T13:36:29.436Z,39.03
2023-05-06T13:38:56.040Z,38.78
2023-05-06T13:41:22.787Z,39.50
2023-05-06T13:43:49.433Z,37.68
2023-05-06T13:46:16.154Z,38.61
2023-05-06T13:48:42.875Z,39.39
2023-05-06T13:51:09.478Z,37.99
2023-05-06T13:53:39.434Z,40.31
2023-05-06T13:56:06.163Z,37.23
2023-05-06T13:58:34.642Z,39.16
2023-05-06T14:01:01.516Z,38.42
2023-05-06T14:03:28.172Z,37.48
2023-05-06T14:05:54.896Z,38.55
2023-05-06T14:08:21.511Z,39.62
2023-05-06T14:10:49.578Z,41.61
2023-05-06T14:13:16.215Z,39.44
2023-05-06T14:15:43.014Z,38.92
2023-05-06T14:18:09.714Z,39.57
2023-05-06T14:20:36.352Z,40.81
2023-05-06T14:23:04.350Z,39.33
2023-05-06T14:25:31.011Z,38.40
2023-05-06T14:27:59.074Z,38.29
2023-05-06T14:30:25.925Z,38.42
2023-05-06T14:32:52.668Z,38.69
2023-05-06T14:35:19.451Z,38.89
2023-05-06T14:37:46.237Z,37.82
2023-05-06T14:40:13.335Z,37.35
2023-05-06T14:42:39.954Z,37.71
2023-05-06T14:45:08.876Z,37.25
2023-05-06T14:47:35.999Z,38.36
2023-05-06T14:50:02.642Z,37.77
2023-05-06T14:52:29.295Z,37.01
2023-05-06T14:54:55.973Z,38.79
2023-05-06T14:57:23.896Z,37.91
2023-05-06T14:59:50.699Z,37.98
2023-05-06T15:02:18.819Z,37.07
2023-05-06T15:04:46.117Z,38.86
2023-05-06T15:07:13.004Z,39.02
2023-05-06T15:09:40.270Z,40.14
2023-05-06T15:12:07.230Z,40.86
2023-05-06T15:14:33.950Z,38.79
2023-05-06T15:17:00.836Z,38.32
2023-05-06T15:19:28.832Z,42.35
2023-05-06T15:21:56.271Z,37.58
2023-05-06T15:24:23.218Z,40.75
2023-05-06T15:26:49.892Z,39.81
2023-05-06T15:29:17.719Z,38.81
2023-05-06T15:31:44.557Z,38.97
2023-05-06T15:34:11.728Z,40.87
2023-05-06T15:36:40.041Z,39.82
2023-05-06T15:39:06.706Z,40.74
2023-05-06T15:41:33.846Z,41.00
2023-05-06T15:44:01.706Z,40.19
2023-05-06T15:46:28.849Z,41.53
2023-05-06T15:49:15.775Z,40.52
2023-05-06T15:51:43.771Z,39.63
2023-05-06T15:54:10.384Z,40.02
2023-05-06T15:56:41.100Z,39.54
2023-05-06T15:59:08.645Z,38.94
2023-05-06T16:01:57.383Z,40.42
2023-05-06T16:04:22.273Z,39.69
2023-05-06T16:06:50.409Z,39.32
2023-05-06T16:09:17.063Z,38.71
2023-05-06T16:11:43.679Z,38.71
2023-05-06T16:14:10.308Z,39.89
2023-05-06T16:16:37.674Z,39.35
2023-05-06T16:19:04.464Z,41.22
2023-05-06T16:21:31.742Z,38.86
2023-05-06T16:24:00.793Z,40.91
2023-05-06T16:26:27.528Z,40.14
2023-05-06T16:28:54.107Z,39.46
2023-05-06T16:31:21.410Z,39.79
2023-05-06T16:33:48.112Z,40.77
2023-05-06T16:36:14.920Z,40.53
2023-05-06T16:38:41.596Z,40.65
2023-05-06T16:41:09.802Z,40.26
2023-05-06T16:43:36.421Z,40.44
2023-05-06T16:46:03.130Z,40.19
2023-05-06T16:48:29.879Z,39.81
2023-05-06T16:50:58.083Z,42.41
2023-05-06T16:53:27.686Z,40.97
2023-05-06T16:55:54.379Z,40.78
2023-05-06T16:58:22.826Z,40.90
2023-05-06T17:00:52.656Z,40.73
2023-05-06T17:03:19.632Z,40.40
2023-05-06T17:05:46.852Z,40.44
2023-05-06T17:08:13.750Z,41.85
2023-05-06T17:10:40.657Z,41.78
2023-05-06T17:13:07.438Z,40.84
2023-05-06T17:15:35.761Z,41.43
2023-05-06T17:18:02.473Z,41.00
2023-05-06T17:20:29.301Z,39.94
2023-05-06T17:22:55.888Z,41.20
2023-05-06T17:25:23.446Z,41.83
2023-05-06T17:27:50.121Z,42.23
2023-05-06T17:30:16.899Z,40.84
2023-05-06T17:32:44.941Z,42.19
2023-05-06T17:35:12.080Z,42.92
2023-05-06T17:37:39.016Z,43.18
2023-05-06T17:40:07.083Z,43.19
2023-05-06T17:42:34.402Z,43.97
2023-05-06T17:45:01.159Z,43.65
2023-05-06T17:47:30.320Z,44.10
2023-05-06T17:49:58.660Z,44.57
2023-05-06T17:52:26.518Z,45.48
2023-05-06T17:55:11.399Z,45.09
2023-05-06T17:57:40.714Z,45.57
2023-05-06T18:00:09.343Z,46.50
2023-05-06T18:02:38.725Z,46.34
2023-05-06T18:05:07.151Z,46.39
2023-05-06T18:07:34.697Z,46.99
2023-05-06T18:10:01.550Z,48.11
2023-05-06T18:12:28.586Z,47.70
2023-05-06T18:14:57.144Z,48.85
2023-05-06T18:17:23.929Z,49.73
2023-05-06T18:19:50.667Z,51.05
2023-05-06T18:22:18.789Z,51.88
2023-05-06T18:24:45.525Z,52.01
2023-05-06T18:27:13.066Z,54.25
2023-05-06T18:29:41.321Z,55.77
2023-05-06T18:32:08.415Z,57.18
2023-05-06T18:34:35.321Z,58.14
2023-05-06T18:37:02.024Z,57.38
2023-05-06T18:39:30.242Z,57.06
2023-05-06T18:41:56.858Z,57.93
2023-05-06T18:44:23.712Z,59.85
2023-05-06T18:46:50.370Z,60.14
2023-05-06T18:49:17.122Z,62.92
2023-05-06T18:51:43.733Z,62.42
2023-05-06T18:54:10.533Z,61.92
2023-05-06T18:56:38.536Z,60.60
2023-05-06T18:59:05.670Z,63.96
2023-05-06T19:01:32.497Z,63.17
2023-05-06T19:03:59.414Z,64.54
2023-05-06T19:06:26.046Z,67.67
2023-05-06T19:08:53.792Z,66.87
2023-05-06T19:11:21.147Z,69.31
2023-05-06T19:13:51.958Z,70.63
2023-05-06T19:16:18.739Z,69.83
2023-05-06T19:18:45.664Z,71.25
2023-05-06T19:21:12.437Z,72.35
2023-05-06T19:23:39.563Z,72.52
2023-05-06T19:26:06.690Z,70.87
2023-05-06T19:28:33.914Z,70.53
2023-05-06T19:31:05.953Z,71.09
2023-05-06T19:33:32.609Z,70.18
2023-05-06T19:35:59.179Z,69.98
2023-05-06T19:38:26.357Z,72.59
2023-05-06T19:40:53.432Z,72.57
2023-05-06T19:43:22.483Z,71.21
2023-05-06T19:45:49.272Z,70.85
2023-05-06T19:48:19.227Z,71.50
2023-05-06T19:50:45.968Z,72.90
2023-05-06T19:53:12.804Z,72.06
2023-05-06T19:55:39.496Z,72.15
2023-05-06T19:58:06.174Z,72.00
2023-05-06T20:00:33.022Z,72.67
2023-05-06T20:03:00.445Z,72.96
2023-05-06T20:05:30.901Z,73.81
2023-05-06T20:07:59.806Z,73.36
2023-05-06T20:10:29.770Z,76.30
2023-05-06T20:12:57.835Z,74.18
2023-05-06T20:15:24.844Z,74.33
2023-05-06T20:17:51.568Z,74.77
2023-05-06T20:20:19.410Z,80.00
2023-05-06T20:22:47.730Z,77.45
2023-05-06T20:25:18.752Z,80.26
2023-05-06T20:27:45.837Z,76.93
2023-05-06T20:30:12.870Z,79.89
2023-05-06T20:32:40.317Z,80.89
2023-05-06T20:35:07.550Z,78.86
2023-05-06T20:37:35.475Z,80.50
2023-05-06T20:40:04.856Z,78.55
2023-05-06T20:42:31.851Z,76.99
2023-05-06T20:44:58.813Z,81.45
2023-05-06T20:47:25.855Z,79.59
2023-05-06T20:49:52.452Z,79.56
2023-05-06T20:52:19.261Z,78.61
2023-05-06T20:54:46.629Z,78.48
2023-05-06T20:57:15.227Z,79.31
2023-05-06T20:59:42.028Z,78.59
2023-05-06T21:02:09.169Z,81.79
2023-05-06T21:04:35.869Z,78.51
2023-05-06T21:07:02.503Z,80.32
2023-05-06T21:09:29.339Z,80.08
2023-05-06T21:11:56.001Z,77.85
2023-05-06T21:14:25.235Z,77.76
2023-05-06T21:16:52.245Z,77.65
2023-05-06T21:19:19.483Z,79.31
2023-05-06T21:21:46.219Z,79.78
2023-05-06T21:24:13.118Z,77.88
2023-05-06T21:26:40.164Z,77.96
2023-05-06T21:29:06.723Z,80.20
2023-05-06T21:31:34.870Z,81.95
2023-05-06T21:34:01.618Z,81.06
2023-05-06T21:36:28.312Z,80.59
2023-05-06T21:38:59.413Z,79.00
2023-05-06T21:41:26.381Z,78.39
2023-05-06T21:43:52.971Z,79.40
2023-05-06T21:46:19.772Z,79.96
2023-05-06T21:48:47.761Z,79.93
2023-05-06T21:51:14.402Z,79.55
2023-05-06T21:53:41.395Z,79.66
2023-05-06T21:56:08.056Z,79.39
2023-05-06T21:58:34.694Z,78.54
2023-05-06T22:01:01.321Z,78.81
2023-05-06T22:03:27.981Z,78.46
2023-05-06T22:05:56.168Z,78.60
2023-05-06T22:08:22.833Z,79.20
2023-05-06T22:10:49.389Z,78.65
2023-05-06T22:13:16.455Z,78.84
2023-05-06T22:15:43.418Z,79.05
2023-05-06T22:18:10.338Z,81.23
2023-05-06T22:20:37.587Z,84.00
2023-05-06T22:23:05.660Z,85.53
2023-05-06T22:25:32.257Z,86.18
2023-05-06T22:27:58.945Z,86.06
2023-05-06T22:30:25.670Z,87.36
2023-05-06T22:32:52.344Z,87.55
2023-05-06T22:35:19.145Z,88.06
2023-05-06T22:37:45.891Z,86.05
2023-05-06T22:40:14.163Z,82.67
2023-05-06T22:42:40.810Z,81.08
2023-05-06T22:45:08.519Z,80.70
2023-05-06T22:47:35.654Z,80.11
2023-05-06T22:50:02.939Z,79.45
2023-05-06T22:52:29.680Z,80.08
2023-05-06T22:54:56.601Z,80.02
2023-05-06T22:57:25.409Z,79.51
2023-05-06T22:59:52.090Z,79.02
2023-05-06T23:02:18.758Z,79.26
2023-05-06T23:04:45.374Z,79.16
2023-05-06T23:07:13.843Z,80.25
2023-05-06T23:09:40.725Z,83.69
2023-05-06T23:12:07.637Z,86.00
2023-05-06T23:14:35.701Z,86.91
2023-05-06T23:17:02.395Z,87.60
2023-05-06T23:19:29.293Z,84.79
2023-05-06T23:21:56.425Z,83.32
2023-05-06T23:24:23.016Z,83.85
2023-05-06T23:26:49.671Z,86.96
2023-05-06T23:29:16.285Z,84.36
2023-05-06T23:31:44.297Z,83.81
2023-05-06T23:34:10.970Z,82.50
2023-05-06T23:36:37.607Z,81.35
2023-05-06T23:39:04.400Z,81.00
2023-05-06T23:41:31.150Z,81.95
2023-05-06T23:43:57.732Z,81.61
2023-05-06T23:46:24.344Z,81.94
2023-05-06T23:48:52.461Z,84.42
2023-05-06T23:51:19.112Z,86.66
2023-05-06T23:53:45.792Z,85.41
2023-05-06T23:56:12.446Z,84.20
2023-05-06T23:58:39.056Z,82.97
